Time;durP1;ratioP1;P1;durP2;ratioP2;P2;SDS_P1;SDS_P2;PMS_P1;PMS_P2;Temp;Humidity;BMP_temperature;BMP_pressure;BME280_temperature;BME280_humidity;BME280_pressure;Samples;Min_cycle;Max_cycle;Signal;HPM_P1;HPM_P2
2022/09/25 00:00:53;;;;;;;1.20;0.60;;;12.30;99.90;;;;;;5115504;28;20446;-79
2022/09/25 00:03:22;;;;;;;1.97;1.87;;;12.40;99.90;;;;;;5115439;28;20463;-79
2022/09/25 00:05:49;;;;;;;2.57;1.23;;;12.40;99.90;;;;;;5115430;28;20447;-80
2022/09/25 00:08:18;;;;;;;2.20;1.07;;;12.40;99.90;;;;;;5115369;28;20809;-80
2022/09/25 00:10:46;;;;;;;7.17;2.37;;;12.40;99.90;;;;;;5115259;28;20474;-80
2022/09/25 00:13:12;;;;;;;1.75;1.65;;;12.40;99.90;;;;;;5115207;28;20494;-79
2022/09/25 00:15:46;;;;;;;2.23;1.50;;;12.40;99.90;;;;;;5115134;28;20208;-79
2022/09/25 00:18:13;;;;;;;1.67;1.57;;;12.40;99.90;;;;;;5115192;28;20434;-79
2022/09/25 00:20:40;;;;;;;5.40;1.43;;;12.40;99.90;;;;;;5115110;28;20445;-79
2022/09/25 00:23:07;;;;;;;3.60;1.17;;;12.50;99.90;;;;;;5115108;28;20496;-79
2022/09/25 00:25:35;;;;;;;2.25;1.10;;;12.50;99.90;;;;;;5115038;28;20443;-79
2022/09/25 00:28:02;;;;;;;3.10;0.80;;;12.50;99.90;;;;;;5114787;28;20704;-80
2022/09/25 00:30:29;;;;;;;1.83;0.70;;;12.50;99.90;;;;;;5114838;28;20478;-79
2022/09/25 00:32:55;;;;;;;2.60;1.03;;;12.60;99.90;;;;;;5114831;28;20204;-79
2022/09/25 00:35:22;;;;;;;2.27;1.07;;;12.60;99.90;;;;;;5114828;28;20442;-79
2022/09/25 00:37:50;;;;;;;3.40;2.00;;;12.60;99.90;;;;;;5114784;28;20446;-79
2022/09/25 00:40:18;;;;;;;8.63;2.93;;;12.60;99.90;;;;;;5114747;28;20446;-79
2022/09/25 00:42:45;;;;;;;4.80;1.83;;;12.60;99.90;;;;;;5114608;28;20486;-79
2022/09/25 00:45:16;;;;;;;3.63;2.30;;;12.50;99.90;;;;;;5114638;28;20808;-79
2022/09/25 00:47:56;;;;;;;3.70;1.93;;;12.60;99.90;;;;;;5114606;28;20447;-79
2022/09/25 00:50:30;;;;;;;5.67;1.90;;;12.50;99.90;;;;;;5114531;28;20462;-79
2022/09/25 00:53:06;;;;;;;1.83;1.23;;;12.50;99.90;;;;;;5114499;28;20423;-79
2022/09/25 00:55:35;;;;;;;2.58;1.70;;;12.50;99.90;;;;;;5114711;28;20423;-79
2022/09/25 00:58:03;;;;;;;4.57;1.90;;;12.50;99.90;;;;;;5114088;28;20664;-79
2022/09/25 01:00:31;;;;;;;2.67;1.60;;;12.50;99.90;;;;;;5114399;28;20488;-79
2022/09/25 01:02:58;;;;;;;3.67;1.43;;;12.40;99.90;;;;;;5114240;28;20446;-79
2022/09/25 01:05:30;;;;;;;1.70;1.40;;;12.40;99.90;;;;;;5114499;28;20435;-79
2022/09/25 01:08:01;;;;;;;2.60;1.40;;;12.50;99.90;;;;;;5114277;28;20427;-79
2022/09/25 01:10:27;;;;;;;2.80;1.30;;;12.40;99.90;;;;;;5115224;28;20502;-79
2022/09/25 01:12:56;;;;;;;4.43;1.33;;;12.40;99.90;;;;;;5113777;28;20969;-79
2022/09/25 01:15:35;;;;;;;4.43;1.73;;;12.40;99.90;;;;;;5114126;28;20815;-79
2022/09/25 01:18:13;;;;;;;2.87;1.30;;;12.40;99.90;;;;;;5114380;28;20427;-79
2022/09/25 01:21:05;;;;;;;3.60;1.37;;;12.40;99.90;;;;;;5114123;28;20762;-79
2022/09/25 01:24:03;;;;;;;2.10;1.33;;;12.40;99.90;;;;;;5113960;28;20838;-79
2022/09/25 01:26:56;;;;;;;3.67;1.37;;;12.40;99.90;;;;;;5113547;28;20431;-79
2022/09/25 01:29:29;;;;;;;2.43;1.30;;;12.40;99.90;;;;;;5113708;28;20825;-79
2022/09/25 01:32:03;;;;;;;2.33;1.27;;;12.40;99.90;;;;;;5114160;28;20458;-80
2022/09/25 01:34:38;;;;;;;1.67;1.30;;;12.50;99.90;;;;;;5113538;28;20475;-79
2022/09/25 01:37:13;;;;;;;4.67;1.03;;;12.40;99.90;;;;;;5113884;28;20434;-79
2022/09/25 01:39:45;;;;;;;5.50;1.67;;;12.40;99.90;;;;;;5114589;28;20857;-79
2022/09/25 01:42:18;;;;;;;1.70;1.23;;;12.40;99.90;;;;;;5113882;28;20427;-79
2022/09/25 01:44:53;;;;;;;3.67;1.77;;;12.40;99.90;;;;;;5113819;28;20466;-75
2022/09/25 01:47:24;;;;;;;5.67;1.97;;;12.40;99.90;;;;;;5113732;28;20879;-76
2022/09/25 01:49:54;;;;;;;2.50;1.97;;;12.40;99.90;;;;;;5113433;28;20454;-76
2022/09/25 01:52:26;;;;;;;1.80;1.40;;;12.40;99.90;;;;;;5113937;28;20467;-76
2022/09/25 01:54:59;;;;;;;2.83;1.40;;;12.40;99.90;;;;;;5113345;28;20474;-76
2022/09/25 01:57:31;;;;;;;3.97;1.90;;;12.30;99.90;;;;;;5113711;28;20423;-76
2022/09/25 02:00:07;;;;;;;2.87;1.17;;;12.30;99.90;;;;;;5113630;28;20432;-75
2022/09/25 02:02:41;;;;;;;3.20;1.58;;;12.30;99.90;;;;;;5114500;28;20423;-76
2022/09/25 02:05:13;;;;;;;3.03;1.33;;;12.30;99.90;;;;;;5113668;28;20189;-75
2022/09/25 02:07:46;;;;;;;2.73;1.67;;;12.30;99.90;;;;;;5113862;28;20431;-76
2022/09/25 02:10:17;;;;;;;2.67;1.73;;;12.30;99.90;;;;;;5113562;28;20493;-76
2022/09/25 02:12:48;;;;;;;1.30;1.07;;;12.40;99.90;;;;;;5113681;28;20463;-76
2022/09/25 02:15:21;;;;;;;3.73;2.33;;;12.40;99.90;;;;;;5113543;28;20434;-76
2022/09/25 02:20:41;;;;;;;3.10;1.70;;;12.40;99.90;;;;;;5113854;28;20403;-75
2022/09/25 02:23:16;;;;;;;5.10;1.50;;;12.40;99.90;;;;;;5113391;28;20499;-75
2022/09/25 02:25:48;;;;;;;3.97;1.93;;;12.40;99.90;;;;;;5113468;28;20472;-76
2022/09/25 02:28:15;;;;;;;2.77;1.93;;;12.40;99.90;;;;;;5113060;28;20478;-76
2022/09/25 02:30:45;;;;;;;1.20;1.10;;;12.30;99.90;;;;;;5113890;28;20447;-76
2022/09/25 02:33:12;;;;;;;3.73;2.00;;;12.30;99.90;;;;;;5113278;28;20474;-76
2022/09/25 02:35:40;;;;;;;4.03;1.37;;;12.30;99.90;;;;;;5113278;28;20454;-76
2022/09/25 02:38:06;;;;;;;2.00;1.50;;;12.30;99.90;;;;;;5113321;28;20500;-76
2022/09/25 02:40:41;;;;;;;1.37;1.20;;;12.20;99.90;;;;;;5116835;28;20457;-75
2022/09/25 02:43:22;;;;;;;2.40;1.40;;;12.30;99.90;;;;;;5117037;28;20469;-76
2022/09/25 02:46:01;;;;;;;1.90;0.97;;;12.20;99.90;;;;;;5117046;28;20434;-76
2022/09/25 02:48:35;;;;;;;3.83;1.13;;;12.20;99.90;;;;;;5117035;28;20431;-75
2022/09/25 02:51:11;;;;;;;1.23;1.07;;;12.20;99.90;;;;;;5116859;28;20467;-76
2022/09/25 02:53:41;;;;;;;8.87;1.50;;;12.20;99.90;;;;;;5116844;28;20450;-76
2022/09/25 02:56:14;;;;;;;1.40;1.30;;;12.20;99.90;;;;;;5116869;28;20438;-76
2022/09/25 02:58:44;;;;;;;1.33;0.70;;;12.20;99.90;;;;;;5116796;28;20450;-76
2022/09/25 03:01:16;;;;;;;2.40;2.30;;;12.20;99.90;;;;;;5116758;28;20427;-76
2022/09/25 03:03:45;;;;;;;2.03;1.50;;;12.10;99.90;;;;;;5116591;28;20470;-76
2022/09/25 03:06:12;;;;;;;2.10;1.13;;;12.20;99.90;;;;;;5116623;28;20443;-76
2022/09/25 03:08:42;;;;;;;3.00;1.77;;;12.10;99.90;;;;;;5116527;28;20462;-77
2022/09/25 03:11:11;;;;;;;1.83;1.03;;;12.10;99.90;;;;;;5116177;28;20478;-77
2022/09/25 03:13:38;;;;;;;1.97;0.97;;;12.00;99.90;;;;;;5116307;28;20980;-78
2022/09/25 03:16:10;;;;;;;2.57;1.10;;;12.00;99.90;;;;;;5116448;28;20438;-77
2022/09/25 03:18:38;;;;;;;1.23;1.07;;;11.90;99.90;;;;;;5116382;28;20432;-77
2022/09/25 03:21:05;;;;;;;3.30;1.00;;;11.80;99.90;;;;;;5116287;28;20449;-77
2022/09/25 03:23:32;;;;;;;1.63;0.77;;;11.80;99.90;;;;;;5116174;28;20470;-77
2022/09/25 03:25:59;;;;;;;1.30;0.90;;;11.80;99.90;;;;;;5115957;28;20947;-77
2022/09/25 03:28:26;;;;;;;1.42;0.93;;;11.80;99.90;;;;;;5115986;28;20478;-77
2022/09/25 03:30:58;;;;;;;2.00;0.90;;;11.80;99.90;;;;;;5116065;28;20197;-77
2022/09/25 03:33:25;;;;;;;4.57;1.43;;;11.80;99.90;;;;;;5116014;28;20466;-77
2022/09/25 03:36:06;;;;;;;1.97;0.73;;;11.80;99.90;;;;;;5115738;28;20443;-77
2022/09/25 03:38:33;;;;;;;0.93;0.80;;;11.80;99.90;;;;;;5116043;28;20430;-77
2022/09/25 03:41:00;;;;;;;4.03;1.93;;;11.80;99.90;;;;;;5115967;28;20201;-77
2022/09/25 03:43:28;;;;;;;1.10;0.53;;;11.80;99.90;;;;;;5115831;28;20490;-76
2022/09/25 03:45:54;;;;;;;2.73;0.97;;;11.80;99.90;;;;;;5115817;28;20510;-76
2022/09/25 03:48:21;;;;;;;1.47;1.00;;;11.80;99.90;;;;;;5115484;28;20898;-76
2022/09/25 03:50:48;;;;;;;3.93;1.10;;;11.80;99.90;;;;;;5115340;28;20454;-77
2022/09/25 03:53:18;;;;;;;0.80;0.80;;;11.80;99.90;;;;;;5115859;28;20483;-77
2022/09/25 03:55:47;;;;;;;3.13;1.13;;;11.80;99.90;;;;;;5115380;28;20474;-77
2022/09/25 03:58:14;;;;;;;3.33;1.23;;;11.80;99.90;;;;;;5115269;28;20458;-77
2022/09/25 04:00:41;;;;;;;2.57;1.10;;;11.80;99.90;;;;;;5115640;28;20447;-77
2022/09/25 04:03:08;;;;;;;1.57;1.23;;;11.80;99.90;;;;;;5115120;28;21016;-77
2022/09/25 04:05:35;;;;;;;1.27;1.17;;;11.80;99.90;;;;;;5115171;28;20961;-77
2022/09/25 04:08:02;;;;;;;0.80;0.60;;;11.80;99.90;;;;;;5115132;28;20490;-77
2022/09/25 04:10:30;;;;;;;3.70;0.83;;;11.80;99.90;;;;;;5115345;28;20560;-76
2022/09/25 04:12:57;;;;;;;1.93;1.33;;;11.70;99.90;;;;;;5114874;28;20486;-77
2022/09/25 04:15:24;;;;;;;0.65;0.65;;;11.70;99.90;;;;;;5115315;28;20542;-77
2022/09/25 04:17:52;;;;;;;1.30;1.00;;;11.70;99.90;;;;;;5114927;28;20665;-77
2022/09/25 04:20:19;;;;;;;0.70;0.63;;;11.70;99.90;;;;;;5115149;28;20439;-77
2022/09/25 04:22:45;;;;;;;0.93;0.80;;;11.60;99.90;;;;;;5115042;28;20439;-77
2022/09/25 04:25:13;;;;;;;1.10;0.90;;;11.60;99.90;;;;;;5115070;28;20452;-77
2022/09/25 04:27:44;;;;;;;1.27;0.90;;;11.60;99.90;;;;;;5114822;28;20490;-76
2022/09/25 04:30:11;;;;;;;1.43;0.70;;;11.70;99.90;;;;;;5115011;28;20444;-77
2022/09/25 04:35:22;;;;;;;1.27;0.50;;;11.70;99.90;;;;;;5115217;28;20886;-77
2022/09/25 04:37:49;;;;;;;1.77;1.33;;;11.70;99.90;;;;;;5114808;28;20462;-77
2022/09/25 04:40:16;;;;;;;1.10;1.00;;;11.70;99.90;;;;;;5114447;28;20826;-77
2022/09/25 04:42:44;;;;;;;2.23;1.43;;;11.70;99.90;;;;;;5114346;28;20953;-77
2022/09/25 04:45:11;;;;;;;0.73;0.67;;;11.70;99.90;;;;;;5114395;28;20970;-77
2022/09/25 04:47:37;;;;;;;3.60;1.00;;;11.70;99.90;;;;;;5114644;28;20450;-77
2022/09/25 04:50:05;;;;;;;1.83;1.23;;;11.70;99.90;;;;;;5114569;28;20450;-77
2022/09/25 04:52:31;;;;;;;5.22;1.15;;;11.80;99.90;;;;;;5114466;28;20486;-77
2022/09/25 04:54:59;;;;;;;1.20;0.70;;;11.70;99.90;;;;;;5114117;28;20731;-76
2022/09/25 04:57:26;;;;;;;2.73;1.10;;;11.80;99.90;;;;;;5114127;28;21011;-76
2022/09/25 04:59:54;;;;;;;1.17;1.00;;;11.80;99.90;;;;;;5114409;28;20452;-76
2022/09/25 05:02:21;;;;;;;0.52;0.43;;;11.80;99.90;;;;;;5113653;28;20449;-76
2022/09/25 05:04:47;;;;;;;1.67;1.00;;;11.80;99.90;;;;;;5114557;28;20224;-76
2022/09/25 05:07:14;;;;;;;1.10;0.80;;;11.80;99.90;;;;;;5114280;28;20450;-76
2022/09/25 05:09:41;;;;;;;2.40;0.90;;;11.80;99.90;;;;;;5114226;28;20447;-76
2022/09/25 05:12:07;;;;;;;1.53;0.80;;;11.80;99.90;;;;;;5114120;28;20479;-76
2022/09/25 05:14:34;;;;;;;2.40;1.90;;;11.80;99.90;;;;;;5114115;28;20830;-76
2022/09/25 05:17:02;;;;;;;2.38;0.70;;;11.90;99.90;;;;;;5113866;28;20428;-76
2022/09/25 05:19:29;;;;;;;1.83;0.87;;;11.80;99.90;;;;;;5114136;28;20201;-76
2022/09/25 05:21:56;;;;;;;1.87;1.00;;;11.80;99.90;;;;;;5114099;28;20841;-76
2022/09/25 05:24:23;;;;;;;1.90;0.80;;;11.80;99.90;;;;;;5114211;28;20463;-76
2022/09/25 05:26:50;;;;;;;2.40;1.40;;;11.80;99.90;;;;;;5113891;28;20451;-76
2022/09/25 05:29:17;;;;;;;2.93;1.10;;;11.70;99.90;;;;;;5114019;28;20455;-76
2022/09/25 05:31:46;;;;;;;1.20;1.00;;;11.70;99.90;;;;;;5113585;28;20930;-76
2022/09/25 05:34:14;;;;;;;3.03;1.17;;;11.70;99.90;;;;;;5113793;28;21035;-76
2022/09/25 05:36:42;;;;;;;0.83;0.60;;;11.60;99.90;;;;;;5113872;28;20443;-76
2022/09/25 05:39:09;;;;;;;1.80;0.60;;;11.60;99.90;;;;;;5113548;28;20839;-76
2022/09/25 05:41:36;;;;;;;1.50;0.60;;;11.70;99.90;;;;;;5113810;28;20499;-76
2022/09/25 05:44:05;;;;;;;1.10;0.70;;;11.60;99.90;;;;;;5113716;28;20478;-76
2022/09/25 05:46:32;;;;;;;3.20;1.00;;;11.60;99.90;;;;;;5113793;28;20541;-76
2022/09/25 05:48:59;;;;;;;0.90;0.80;;;11.60;99.90;;;;;;5113774;28;20488;-84
2022/09/25 05:51:27;;;;;;;1.43;1.07;;;11.70;99.90;;;;;;5113736;28;20442;-84
2022/09/25 05:53:54;;;;;;;1.87;1.17;;;11.70;99.90;;;;;;5113298;28;20993;-85
2022/09/25 05:56:23;;;;;;;1.47;0.70;;;11.70;99.90;;;;;;5113428;28;20813;-84
2022/09/25 05:58:49;;;;;;;1.30;0.90;;;11.80;99.90;;;;;;5114017;28;20531;-84
2022/09/25 06:01:17;;;;;;;1.20;0.50;;;11.70;99.90;;;;;;5113668;28;20466;-84
2022/09/25 06:03:43;;;;;;;0.70;0.70;;;11.80;99.90;;;;;;5113585;28;20490;-84
2022/09/25 06:06:10;;;;;;;0.77;0.60;;;11.70;99.90;;;;;;5113291;28;20454;-85
2022/09/25 06:08:39;;;;;;;1.33;0.93;;;11.70;99.90;;;;;;5113597;28;20443;-84
2022/09/25 06:11:06;;;;;;;1.70;1.23;;;11.70;99.90;;;;;;5113669;28;20447;-84
2022/09/25 06:13:35;;;;;;;2.10;1.90;;;11.70;99.90;;;;;;5115521;28;20478;-84
2022/09/25 06:16:04;;;;;;;5.73;0.97;;;11.60;99.90;;;;;;5118172;28;20504;-84
2022/09/25 06:18:31;;;;;;;1.33;0.50;;;11.70;99.90;;;;;;5117606;28;20895;-84
2022/09/25 06:21:01;;;;;;;0.70;0.60;;;11.70;99.90;;;;;;5117222;28;20447;-84
2022/09/25 06:23:28;;;;;;;0.70;0.60;;;11.80;99.90;;;;;;5117143;28;20459;-84
2022/09/25 06:26:00;;;;;;;0.93;0.83;;;11.80;99.90;;;;;;5117554;28;20443;-84
2022/09/25 06:28:27;;;;;;;1.77;0.80;;;11.90;99.90;;;;;;5117161;28;20992;-84
2022/09/25 06:30:53;;;;;;;1.70;0.80;;;11.90;99.90;;;;;;5117570;28;20446;-84
2022/09/25 06:33:21;;;;;;;2.63;0.90;;;11.90;99.90;;;;;;5116824;28;21016;-84
2022/09/25 06:35:49;;;;;;;2.10;1.13;;;11.90;99.90;;;;;;5117245;28;20446;-84
2022/09/25 06:38:17;;;;;;;3.03;1.50;;;11.90;99.90;;;;;;5116882;28;20873;-84
2022/09/25 06:40:44;;;;;;;6.17;1.50;;;11.90;99.90;;;;;;5117144;28;20453;-84
2022/09/25 06:43:15;;;;;;;1.40;0.85;;;12.00;99.90;;;;;;5117046;28;20455;-84
2022/09/25 06:45:43;;;;;;;0.97;0.67;;;12.00;99.90;;;;;;5117122;28;20239;-84
2022/09/25 06:48:11;;;;;;;1.63;0.90;;;12.00;99.90;;;;;;5117221;28;20450;-84
2022/09/25 06:50:41;;;;;;;6.23;0.80;;;12.00;99.90;;;;;;5116959;28;20542;-84
2022/09/25 06:53:08;;;;;;;2.93;1.60;;;12.10;99.90;;;;;;5116694;28;20483;-84
2022/09/25 06:55:35;;;;;;;1.80;1.27;;;12.20;99.90;;;;;;5116833;28;20446;-84
2022/09/25 06:58:02;;;;;;;3.37;1.30;;;12.20;99.90;;;;;;5116788;28;20449;-84
2022/09/25 07:00:30;;;;;;;1.97;0.90;;;12.20;99.90;;;;;;5116748;28;20445;-85
2022/09/25 07:05:43;;;;;;;1.43;0.60;;;12.20;99.90;;;;;;5116815;28;20399;-84
2022/09/25 07:08:11;;;;;;;1.42;1.08;;;12.20;99.90;;;;;;5116573;28;20542;-85
2022/09/25 07:10:38;;;;;;;3.27;0.80;;;12.30;99.90;;;;;;5116584;28;20202;-84
2022/09/25 07:13:05;;;;;;;1.63;1.50;;;12.40;99.90;;;;;;5116602;28;20486;-84
2022/09/25 07:15:33;;;;;;;2.27;1.10;;;12.40;99.90;;;;;;5116477;28;20446;-84
2022/09/25 07:18:00;;;;;;;4.83;1.83;;;12.40;99.90;;;;;;5116496;28;20435;-84
2022/09/25 07:20:27;;;;;;;1.00;0.47;;;12.50;99.90;;;;;;5116410;28;20454;-85
2022/09/25 07:22:59;;;;;;;1.83;0.80;;;12.40;99.90;;;;;;5116255;28;20447;-85
2022/09/25 07:25:26;;;;;;;1.58;0.95;;;12.50;99.90;;;;;;5115478;28;20439;-84
2022/09/25 07:27:53;;;;;;;1.58;0.73;;;12.60;99.90;;;;;;5115904;28;20260;-84
2022/09/25 07:30:19;;;;;;;2.33;0.60;;;12.60;99.90;;;;;;5116219;28;20255;-83
2022/09/25 07:32:48;;;;;;;1.80;0.97;;;12.70;99.90;;;;;;5116231;28;20217;-84
2022/09/25 07:35:15;;;;;;;1.03;0.83;;;12.70;99.90;;;;;;5116094;28;20492;-84
2022/09/25 07:37:41;;;;;;;1.20;0.67;;;12.70;99.90;;;;;;5116035;28;20450;-85
2022/09/25 07:40:13;;;;;;;1.00;0.90;;;12.80;99.90;;;;;;5115865;28;20466;-84
2022/09/25 07:42:40;;;;;;;2.97;1.50;;;12.80;99.90;;;;;;5116029;28;20434;-84
2022/09/25 07:45:08;;;;;;;2.00;1.07;;;12.80;99.90;;;;;;5115813;28;20467;-84
2022/09/25 07:47:35;;;;;;;2.15;0.85;;;12.80;99.90;;;;;;5115596;28;20447;-84
2022/09/25 07:50:04;;;;;;;1.33;0.87;;;12.80;99.90;;;;;;5115540;28;20223;-84
2022/09/25 07:52:31;;;;;;;1.33;1.03;;;12.90;99.90;;;;;;5115680;28;20482;-84
2022/09/25 07:54:58;;;;;;;1.23;1.10;;;12.90;99.90;;;;;;5115637;28;20455;-85
2022/09/25 07:57:26;;;;;;;2.20;1.13;;;12.90;99.90;;;;;;5115657;28;20439;-84
2022/09/25 07:59:53;;;;;;;1.97;0.90;;;12.90;99.90;;;;;;5115667;28;20479;-85
2022/09/25 08:02:20;;;;;;;1.93;1.57;;;13.00;99.90;;;;;;5115342;28;20965;-85
2022/09/25 08:04:46;;;;;;;3.07;1.47;;;13.00;99.90;;;;;;5115506;28;20814;-84
2022/09/25 08:07:14;;;;;;;1.90;1.10;;;13.00;99.90;;;;;;5115488;28;20451;-85
2022/09/25 08:09:41;;;;;;;2.13;0.93;;;13.10;99.90;;;;;;5115141;28;20946;-84
2022/09/25 08:12:11;;;;;;;1.43;1.07;;;13.10;99.90;;;;;;5115374;28;20450;-84
2022/09/25 08:14:38;;;;;;;2.15;0.93;;;13.20;99.90;;;;;;5115221;28;20478;-84
2022/09/25 08:17:05;;;;;;;1.03;0.97;;;13.10;99.90;;;;;;5115259;28;20202;-84
2022/09/25 08:19:32;;;;;;;1.57;1.47;;;13.20;99.90;;;;;;5115262;28;20799;-84
2022/09/25 08:21:58;;;;;;;0.60;0.60;;;13.20;99.90;;;;;;5114837;28;20869;-84
2022/09/25 08:24:26;;;;;;;1.63;1.10;;;13.20;99.90;;;;;;5115301;28;20217;-84
2022/09/25 08:26:53;;;;;;;1.03;0.53;;;13.30;99.90;;;;;;5114850;28;20865;-83
2022/09/25 08:29:20;;;;;;;2.50;1.47;;;13.30;99.90;;;;;;5115107;28;20430;-84
2022/09/25 08:31:47;;;;;;;1.13;0.60;;;13.40;99.90;;;;;;5114999;28;20443;-84
2022/09/25 08:34:15;;;;;;;1.50;1.00;;;13.40;99.90;;;;;;5114837;28;20920;-85
2022/09/25 08:36:42;;;;;;;0.60;0.60;;;13.50;99.90;;;;;;5113905;28;20504;-85
2022/09/25 08:39:09;;;;;;;1.43;0.93;;;13.50;99.90;;;;;;5114586;28;20439;-84
2022/09/25 08:41:45;;;;;;;1.03;0.60;;;13.60;99.90;;;;;;5114471;28;20486;-85
2022/09/25 08:44:21;;;;;;;1.00;0.80;;;13.70;99.90;;;;;;5114713;28;20463;-85
2022/09/25 08:49:41;;;;;;;0.93;0.60;;;13.90;99.90;;;;;;5114726;28;20399;-84
2022/09/25 08:52:12;;;;;;;1.10;1.00;;;14.00;99.90;;;;;;5114862;28;20431;-85
2022/09/25 08:54:40;;;;;;;0.67;0.63;;;14.00;99.90;;;;;;5114681;28;20486;-84
2022/09/25 08:57:15;;;;;;;1.90;1.10;;;14.00;99.90;;;;;;5114513;28;20454;-85
2022/09/25 08:59:46;;;;;;;1.60;1.10;;;14.00;99.90;;;;;;5114250;28;20919;-84
2022/09/25 09:02:15;;;;;;;1.47;1.37;;;14.00;99.90;;;;;;5114456;28;20438;-84
2022/09/25 09:04:46;;;;;;;0.90;0.80;;;14.10;99.90;;;;;;5114299;28;20470;-84
2022/09/25 09:07:17;;;;;;;0.60;0.60;;;14.20;99.90;;;;;;5114406;28;20432;-84
2022/09/25 09:09:48;;;;;;;2.53;1.02;;;14.20;99.90;;;;;;5114073;28;20690;-84
2022/09/25 09:12:21;;;;;;;1.33;1.23;;;14.20;99.90;;;;;;5114305;28;20185;-84
2022/09/25 09:14:51;;;;;;;4.10;0.80;;;14.20;99.90;;;;;;5113852;28;20696;-84
2022/09/25 09:17:20;;;;;;;2.23;1.60;;;14.20;99.90;;;;;;5113838;28;20934;-84
2022/09/25 09:19:50;;;;;;;1.40;1.30;;;14.20;99.90;;;;;;5114183;28;20443;-84
2022/09/25 09:22:22;;;;;;;0.97;0.80;;;14.30;99.90;;;;;;5113809;28;20931;-84
2022/09/25 09:24:55;;;;;;;1.70;0.80;;;14.30;99.90;;;;;;5114076;28;20455;-84
2022/09/25 09:27:36;;;;;;;0.97;0.63;;;14.30;99.90;;;;;;5113902;28;20850;-84
2022/09/25 09:30:16;;;;;;;1.60;1.13;;;14.30;99.90;;;;;;5114027;28;20454;-84
2022/09/25 09:32:55;;;;;;;1.48;1.08;;;14.30;99.90;;;;;;5113914;28;20435;-84
2022/09/25 09:35:29;;;;;;;0.80;0.80;;;14.40;99.90;;;;;;5114061;28;20596;-84
2022/09/25 09:38:07;;;;;;;1.95;1.17;;;14.50;99.90;;;;;;5113978;28;20181;-84
2022/09/25 09:41:03;;;;;;;0.70;0.70;;;14.50;99.90;;;;;;5113581;28;20668;-83
2022/09/25 09:43:43;;;;;;;0.60;0.60;;;14.70;99.90;;;;;;5113807;28;20526;-83
2022/09/25 09:46:20;;;;;;;1.53;1.17;;;14.60;99.90;;;;;;5113555;28;20636;-83
2022/09/25 09:48:57;;;;;;;2.77;1.00;;;14.60;99.90;;;;;;5113402;28;20441;-83
2022/09/25 09:51:32;;;;;;;0.90;0.80;;;14.70;99.90;;;;;;5114078;28;20431;-83
2022/09/25 09:54:03;;;;;;;2.63;1.10;;;14.80;99.90;;;;;;5113289;28;20479;-83
2022/09/25 09:56:32;;;;;;;1.00;1.00;;;14.80;99.90;;;;;;5113795;28;20458;-83
2022/09/25 09:59:03;;;;;;;1.27;1.00;;;14.80;99.90;;;;;;5113667;28;20443;-84
2022/09/25 10:01:32;;;;;;;1.40;0.87;;;14.90;99.90;;;;;;5113915;28;20450;-82
2022/09/25 10:04:04;;;;;;;2.40;1.00;;;14.90;99.90;;;;;;5113569;28;20490;-82
2022/09/25 10:06:35;;;;;;;0.90;0.90;;;15.00;99.90;;;;;;5113660;28;20838;-82
2022/09/25 10:09:02;;;;;;;4.40;1.10;;;15.00;99.90;;;;;;5113637;28;20434;-82
2022/09/25 10:11:31;;;;;;;1.48;0.85;;;15.00;99.90;;;;;;5113786;28;20201;-82
2022/09/25 10:14:04;;;;;;;2.47;1.23;;;15.00;99.90;;;;;;5113458;28;20281;-82
2022/09/25 10:16:31;;;;;;;2.00;1.30;;;15.10;99.90;;;;;;5113491;28;20424;-82
2022/09/25 10:19:03;;;;;;;2.93;1.20;;;15.10;99.90;;;;;;5113731;28;20435;-82
2022/09/25 10:21:32;;;;;;;1.67;1.33;;;15.10;99.90;;;;;;5113485;28;20422;-82
2022/09/25 10:24:01;;;;;;;2.33;1.03;;;15.00;99.90;;;;;;5113360;28;20482;-82
2022/09/25 10:26:31;;;;;;;2.63;1.63;;;15.00;99.90;;;;;;5113358;28;20447;-82
2022/09/25 10:29:02;;;;;;;1.92;1.40;;;15.10;99.90;;;;;;5113308;28;20819;-82
2022/09/25 10:31:31;;;;;;;1.83;1.08;;;15.20;99.90;;;;;;5113442;28;20633;-82
2022/09/25 10:34:04;;;;;;;1.03;0.90;;;15.40;99.90;;;;;;5113166;28;20231;-82
2022/09/25 10:36:33;;;;;;;2.07;1.10;;;15.50;99.90;;;;;;5113061;28;20435;-82
2022/09/25 10:39:02;;;;;;;2.00;1.23;;;15.60;99.90;;;;;;5113265;28;20442;-82
2022/09/25 10:41:31;;;;;;;1.13;0.73;;;15.60;99.90;;;;;;5113259;28;20442;-82
2022/09/25 10:44:01;;;;;;;0.80;0.80;;;15.50;99.90;;;;;;5113172;28;20506;-82
2022/09/25 10:52:05;;;;;;;1.63;0.57;;;15.30;99.90;;;;;;5113569;28;20415;-82
2022/09/25 10:54:32;;;;;;;2.33;1.17;;;15.30;99.90;;;;;;5113040;28;20483;-82
2022/09/25 10:56:59;;;;;;;2.60;1.40;;;15.40;99.90;;;;;;5113064;28;20423;-82
2022/09/25 10:59:28;;;;;;;1.70;1.07;;;15.30;99.90;;;;;;5113289;28;20454;-82
2022/09/25 11:01:55;;;;;;;3.10;1.50;;;15.30;99.90;;;;;;5116479;28;20945;-82
2022/09/25 11:04:24;;;;;;;0.80;0.80;;;15.20;99.90;;;;;;5116644;28;20462;-82
2022/09/25 11:06:53;;;;;;;1.20;1.20;;;15.10;99.90;;;;;;5116692;28;20443;-82
2022/09/25 11:09:22;;;;;;;5.53;1.60;;;15.00;99.90;;;;;;5116744;28;20446;-83
2022/09/25 11:11:52;;;;;;;1.83;1.50;;;15.00;99.90;;;;;;5116650;28;20447;-82
2022/09/25 11:14:27;;;;;;;2.35;1.17;;;15.00;99.90;;;;;;5116370;28;20229;-82
2022/09/25 11:16:56;;;;;;;1.13;0.97;;;15.00;99.90;;;;;;5116246;28;20181;-82
2022/09/25 11:19:27;;;;;;;2.30;1.30;;;15.10;99.90;;;;;;5116469;28;20447;-82
2022/09/25 11:22:16;;;;;;;7.20;1.60;;;15.20;99.90;;;;;;5116472;28;20432;-82
2022/09/25 11:24:56;;;;;;;2.00;1.10;;;15.40;99.90;;;;;;5116324;28;20459;-83
2022/09/25 11:27:30;;;;;;;2.57;1.47;;;15.50;99.90;;;;;;5116123;28;20496;-82
2022/09/25 11:30:05;;;;;;;2.47;1.40;;;15.60;99.90;;;;;;5116224;28;20439;-82
2022/09/25 11:32:41;;;;;;;1.70;1.40;;;15.70;99.90;;;;;;5116270;28;20422;-82
2022/09/25 11:35:30;;;;;;;1.83;1.20;;;15.70;99.90;;;;;;5115967;28;20487;-82
2022/09/25 11:38:05;;;;;;;2.20;1.43;;;15.70;99.90;;;;;;5115794;28;20432;-82
2022/09/25 11:43:37;;;;;;;0.80;0.80;;;15.60;99.90;;;;;;5116081;28;20443;-82
2022/09/25 11:46:17;;;;;;;3.92;2.15;;;15.50;99.90;;;;;;5115997;28;20437;-82
2022/09/25 11:49:07;;;;;;;1.27;1.20;;;15.40;99.90;;;;;;5115644;28;20637;-82
2022/09/25 11:51:54;;;;;;;6.23;2.20;;;15.20;99.90;;;;;;5116165;28;20795;-82
2022/09/25 11:54:31;;;;;;;4.73;2.30;;;15.00;99.90;;;;;;5115483;28;20986;-82
2022/09/25 11:57:04;;;;;;;3.30;1.80;;;14.80;99.90;;;;;;5115887;28;20488;-82
2022/09/25 11:59:45;;;;;;;5.78;2.85;;;14.80;99.90;;;;;;5116001;28;20431;-82
2022/09/25 12:02:21;;;;;;;3.13;1.80;;;14.70;99.90;;;;;;5115810;28;20632;-82
2022/09/25 12:05:13;;;;;;;3.33;1.67;;;14.80;99.90;;;;;;5115532;28;20554;-82
2022/09/25 12:08:02;;;;;;;2.60;1.77;;;14.70;99.90;;;;;;5115554;28;20436;-82
2022/09/25 12:10:38;;;;;;;2.13;1.33;;;14.60;99.90;;;;;;5115062;28;20442;-81
2022/09/25 12:13:14;;;;;;;1.50;1.40;;;14.40;99.90;;;;;;5115415;28;20558;-81
2022/09/25 12:15:53;;;;;;;1.87;1.30;;;14.30;99.90;;;;;;5115321;28;20212;-81
2022/09/25 12:18:42;;;;;;;5.33;2.70;;;14.10;99.90;;;;;;5115324;28;20530;-81
2022/09/25 12:21:16;;;;;;;3.97;2.50;;;14.00;99.90;;;;;;5115273;28;20857;-81
2022/09/25 12:23:50;;;;;;;2.70;2.00;;;13.90;99.90;;;;;;5115372;28;20224;-82
2022/09/25 12:26:24;;;;;;;5.40;2.20;;;13.80;99.90;;;;;;5115154;28;20438;-82
2022/09/25 12:29:05;;;;;;;3.13;2.47;;;13.80;99.90;;;;;;5114630;28;20477;-81
2022/09/25 12:31:48;;;;;;;2.17;1.80;;;13.80;99.90;;;;;;5115073;28;20190;-81
2022/09/25 12:34:28;;;;;;;3.37;2.00;;;13.80;99.90;;;;;;5114862;28;20483;-81
2022/09/25 12:37:07;;;;;;;3.80;2.03;;;13.90;99.90;;;;;;5115047;28;20438;-81
2022/09/25 12:39:40;;;;;;;3.90;2.00;;;13.90;99.90;;;;;;5114913;28;20423;-81
2022/09/25 12:42:16;;;;;;;4.17;1.70;;;13.90;99.90;;;;;;5114839;28;20424;-81
2022/09/25 12:44:49;;;;;;;2.00;1.60;;;14.00;99.90;;;;;;5114721;28;20463;-81
2022/09/25 12:47:24;;;;;;;5.07;1.63;;;14.00;99.90;;;;;;5114769;28;20458;-81
2022/09/25 12:49:57;;;;;;;2.43;1.37;;;14.00;99.90;;;;;;5114695;28;20426;-81
2022/09/25 12:52:30;;;;;;;2.87;1.90;;;14.10;99.90;;;;;;5114671;28;20427;-81
2022/09/25 12:55:02;;;;;;;2.03;1.23;;;14.10;99.90;;;;;;5114477;28;20485;-82
2022/09/25 12:57:37;;;;;;;2.10;1.63;;;14.30;99.90;;;;;;5114521;28;20432;-81
2022/09/25 13:00:06;;;;;;;4.10;1.63;;;14.30;99.90;;;;;;5114283;28;20898;-81
2022/09/25 13:02:40;;;;;;;2.80;1.93;;;14.50;99.90;;;;;;5114334;28;20923;-81
2022/09/25 13:05:14;;;;;;;2.47;1.87;;;14.60;99.90;;;;;;5114332;28;20459;-82
2022/09/25 13:07:49;;;;;;;4.20;2.67;;;14.70;99.90;;;;;;5114408;28;20488;-82
2022/09/25 13:10:27;;;;;;;4.67;1.73;;;14.70;99.90;;;;;;5114060;28;20901;-82
2022/09/25 13:12:56;;;;;;;3.23;1.90;;;14.90;99.90;;;;;;5114279;28;20450;-82
2022/09/25 13:15:27;;;;;;;4.43;2.00;;;14.90;99.90;;;;;;5113834;28;21016;-82
2022/09/25 13:17:54;;;;;;;1.73;1.47;;;15.00;99.90;;;;;;5114246;28;20464;-82
2022/09/25 13:20:50;;;;;;;7.20;2.50;;;15.00;99.90;;;;;;5114136;28;20447;-82
2022/09/25 13:23:27;;;;;;;5.50;2.03;;;15.10;99.90;;;;;;5113114;28;20459;-82
2022/09/25 13:25:59;;;;;;;5.90;2.60;;;15.10;99.90;;;;;;5114177;28;20434;-82